TimeEET,TemperatureF,Dew PointF,Humidity,Sea Level PressureIn,VisibilityMPH,Wind Direction,Wind SpeedMPH,Gust SpeedMPH,PrecipitationIn,Events,Conditions,WindDirDegrees,DateUTC
12:20 AM,42.8,39.2,87,30.06,6.2,NNW,18.4,-,N/A,,Mostly Cloudy,340,2013-02-27 22:20:00
12:50 AM,42.8,37.4,81,30.06,6.2,NNW,20.7,-,N/A,,Mostly Cloudy,340,2013-02-27 22:50:00
1:20 AM,41.0,37.4,87,30.06,6.2,NNW,17.3,-,N/A,,Scattered Clouds,340,2013-02-27 23:20:00
1:50 AM,41.0,37.4,87,30.06,4.3,NNW,17.3,-,N/A,,Mostly Cloudy,340,2013-02-27 23:50:00
2:00 AM,42,37,77,30.10,4,NNW,17.3,,,,Mist,340,2013-02-28 00:00:00
2:20 AM,41.0,39.2,93,30.09,4.3,NNW,16.1,-,N/A,,Mostly Cloudy,340,2013-02-28 00:20:00
2:50 AM,41.0,39.2,93,30.06,3.7,NNW,13.8,-,N/A,Rain,Light Rain Showers,330,2013-02-28 00:50:00
3:20 AM,42.8,41.0,93,30.06,4.3,North,18.4,-,N/A,Rain,Light Rain Showers,350,2013-02-28 01:20:00
3:50 AM,42.8,39.2,87,30.06,6.2,North,17.3,-,N/A,,Mostly Cloudy,350,2013-02-28 01:50:00
4:20 AM,42.8,39.2,87,30.06,6.2,NNW,18.4,-,N/A,,Mostly Cloudy,340,2013-02-28 02:20:00
4:50 AM,41.0,39.2,93,30.09,6.2,NNW,20.7,-,N/A,,Mostly Cloudy,340,2013-02-28 02:50:00
5:20 AM,41.0,39.2,93,30.09,5.0,NNW,18.4,-,N/A,Rain,Light Rain Showers,340,2013-02-28 03:20:00
5:50 AM,42.8,37.4,81,30.09,5.0,NNW,20.7,-,N/A,Rain,Light Rain Showers,340,2013-02-28 03:50:00
6:20 AM,42.8,37.4,81,30.09,5.0,NNW,21.9,-,N/A,Rain,Light Rain Showers,340,2013-02-28 04:20:00
6:50 AM,41.0,37.4,87,30.09,6.2,NNW,21.9,-,N/A,,Mostly Cloudy,340,2013-02-28 04:50:00
7:20 AM,42.8,39.2,87,30.09,4.3,North,24.2,-,N/A,Rain,Light Rain Showers,350,2013-02-28 05:20:00
7:50 AM,41.0,37.4,87,30.12,4.3,North,26.5,-,N/A,Rain,Light Rain Showers,360,2013-02-28 05:50:00
8:00 AM,42,37,75,30.13,12,North,26.5,,,Rain,Light Rain Showers,0,2013-02-28 06:00:00
8:20 AM,41.0,37.4,87,30.15,4.3,North,23.0,-,N/A,Rain,Light Rain Showers,350,2013-02-28 06:20:00
8:50 AM,42.8,37.4,81,30.15,4.3,North,19.6,-,N/A,Rain,Light Rain Showers,360,2013-02-28 06:50:00
9:20 AM,42.8,37.4,81,30.15,4.3,North,16.1,-,N/A,,Mostly Cloudy,350,2013-02-28 07:20:00
9:50 AM,42.8,37.4,81,30.15,6.2,North,16.1,-,N/A,Rain,Light Rain Showers,350,2013-02-28 07:50:00
10:20 AM,42.8,37.4,81,30.15,6.2,NNW,15.0,-,N/A,Rain,Light Rain Showers,340,2013-02-28 08:20:00
10:50 AM,42.8,37.4,81,30.18,6.2,NNW,19.6,-,N/A,Rain,Light Rain Showers,340,2013-02-28 08:50:00
11:20 AM,42.8,37.4,81,30.18,3.7,NNW,20.7,-,N/A,,Mostly Cloudy,340,2013-02-28 09:20:00
11:50 AM,42.8,37.4,81,30.18,3.7,NNW,21.9,-,N/A,,Mostly Cloudy,340,2013-02-28 09:50:00
12:20 PM,41.0,37.4,87,30.18,3.7,NW,19.6,-,N/A,,Mostly Cloudy,320,2013-02-28 10:20:00
12:50 PM,41.0,39.2,93,30.18,3.7,NW,12.7,-,N/A,,Mostly Cloudy,320,2013-02-28 10:50:00
1:20 PM,42.8,39.2,87,30.15,3.7,NNW,15.0,-,N/A,,Mostly Cloudy,330,2013-02-28 11:20:00
1:50 PM,42.8,41.0,93,30.15,3.7,NW,12.7,-,N/A,,Mostly Cloudy,320,2013-02-28 11:50:00
2:00 PM,43,40,86,30.18,4,NW,12.7,,,,Mist,320,2013-02-28 12:00:00
2:20 PM,44.6,42.8,93,30.15,3.7,North,11.5,-,N/A,Rain,Light Rain Showers,350,2013-02-28 12:20:00
2:50 PM,44.6,39.2,81,30.18,3.7,NNE,17.3,-,N/A,Rain,Light Rain Showers,20,2013-02-28 12:50:00
3:20 PM,44.6,39.2,81,30.18,3.7,North,13.8,-,N/A,Rain,Light Rain Showers,10,2013-02-28 13:20:00
3:50 PM,42.8,39.2,87,30.18,1.9,North,15.0,-,N/A,Rain,Light Rain Showers,360,2013-02-28 13:50:00
4:20 PM,42.8,37.4,81,30.18,4.3,North,16.1,-,N/A,Rain,Light Rain Showers,10,2013-02-28 14:20:00
4:50 PM,42.8,37.4,81,30.18,3.7,North,15.0,-,N/A,Rain,Light Rain Showers,10,2013-02-28 14:50:00
5:20 PM,44.6,37.4,76,30.21,3.7,North,11.5,-,N/A,Rain,Light Rain Showers,10,2013-02-28 15:20:00
5:50 PM,42.8,37.4,81,30.21,3.7,North,13.8,-,N/A,Rain,Light Rain Showers,350,2013-02-28 15:50:00
6:20 PM,42.8,37.4,81,30.21,3.7,North,11.5,-,N/A,Rain,Light Rain Showers,360,2013-02-28 16:20:00
6:50 PM,42.8,37.4,81,30.21,3.7,North,13.8,-,N/A,Rain,Light Rain Showers,360,2013-02-28 16:50:00
7:20 PM,42.8,35.6,76,30.21,3.7,North,12.7,-,N/A,,Mostly Cloudy,10,2013-02-28 17:20:00
7:50 PM,41.0,35.6,81,30.21,4.3,North,10.4,-,N/A,,Mostly Cloudy,350,2013-02-28 17:50:00
8:00 PM,42,35,67,30.24,4,North,10.4,,,Rain,Light Rain Showers,350,2013-02-28 18:00:00
8:20 PM,41.0,35.6,81,30.21,2.5,North,12.7,-,N/A,,Mostly Cloudy,350,2013-02-28 18:20:00
8:50 PM,41.0,33.8,76,30.21,3.7,North,9.2,-,N/A,,Mostly Cloudy,360,2013-02-28 18:50:00
9:20 PM,41.0,33.8,76,30.24,4.3,North,10.4,-,N/A,,Scattered Clouds,350,2013-02-28 19:20:00
9:50 PM,39.2,32.0,75,30.24,5.0,North,8.1,-,N/A,,Scattered Clouds,350,2013-02-28 19:50:00
10:20 PM,37.4,32.0,81,30.24,4.3,North,6.9,-,N/A,,Scattered Clouds,350,2013-02-28 20:20:00
10:50 PM,37.4,32.0,81,30.24,4.3,North,6.9,-,N/A,,Scattered Clouds,350,2013-02-28 20:50:00
11:20 PM,35.6,30.2,81,30.21,3.7,NNW,4.6,-,N/A,,Scattered Clouds,330,2013-02-28 21:20:00
11:50 PM,35.6,30.2,81,30.21,3.7,NNW,6.9,-,N/A,,Scattered Clouds,330,2013-02-28 21:50:00